sensor_id;sensor_type;location;lat;lon;timestamp;P1;durP1;ratioP1;P2;durP2;ratioP2
11473;SDS011;5793;52.238;13.438;2023-03-25T00:01:46;5.90;;;2.93;;
11473;SDS011;5793;52.238;13.438;2023-03-25T00:04:14;6.23;;;3.13;;
11473;SDS011;5793;52.238;13.438;2023-03-25T00:06:43;5.30;;;2.90;;
11473;SDS011;5793;52.238;13.438;2023-03-25T00:09:11;6.17;;;3.37;;
11473;SDS011;5793;52.238;13.438;2023-03-25T00:11:39;5.63;;;3.50;;
11473;SDS011;5793;52.238;13.438;2023-03-25T00:14:08;3.57;;;2.90;;
11473;SDS011;5793;52.238;13.438;2023-03-25T00:16:37;5.53;;;2.83;;
11473;SDS011;5793;52.238;13.438;2023-03-25T00:19:05;5.77;;;2.80;;
11473;SDS011;5793;52.238;13.438;2023-03-25T00:21:34;6.13;;;3.00;;
11473;SDS011;5793;52.238;13.438;2023-03-25T00:24:02;4.03;;;2.63;;
11473;SDS011;5793;52.238;13.438;2023-03-25T00:26:30;5.27;;;2.73;;
11473;SDS011;5793;52.238;13.438;2023-03-25T00:28:58;4.30;;;2.40;;
11473;SDS011;5793;52.238;13.438;2023-03-25T00:31:27;6.13;;;2.57;;
11473;SDS011;5793;52.238;13.438;2023-03-25T00:33:55;3.43;;;2.43;;
11473;SDS011;5793;52.238;13.438;2023-03-25T00:36:23;4.27;;;2.50;;
11473;SDS011;5793;52.238;13.438;2023-03-25T00:38:51;4.23;;;2.30;;
11473;SDS011;5793;52.238;13.438;2023-03-25T00:41:19;3.80;;;2.10;;
11473;SDS011;5793;52.238;13.438;2023-03-25T00:43:51;3.33;;;2.17;;
11473;SDS011;5793;52.238;13.438;2023-03-25T00:46:20;3.60;;;2.23;;
11473;SDS011;5793;52.238;13.438;2023-03-25T00:48:50;3.40;;;2.33;;
11473;SDS011;5793;52.238;13.438;2023-03-25T00:51:18;7.23;;;2.20;;
11473;SDS011;5793;52.238;13.438;2023-03-25T00:53:47;5.87;;;2.20;;
11473;SDS011;5793;52.238;13.438;2023-03-25T00:56:18;3.60;;;2.10;;
11473;SDS011;5793;52.238;13.438;2023-03-25T00:58:46;4.60;;;2.00;;
11473;SDS011;5793;52.238;13.438;2023-03-25T01:01:15;5.40;;;2.23;;
11473;SDS011;5793;52.238;13.438;2023-03-25T01:03:50;3.23;;;2.20;;
11473;SDS011;5793;52.238;13.438;2023-03-25T01:06:23;2.20;;;1.77;;
11473;SDS011;5793;52.238;13.438;2023-03-25T01:08:55;3.27;;;1.90;;
11473;SDS011;5793;52.238;13.438;2023-03-25T01:11:24;3.77;;;1.90;;
11473;SDS011;5793;52.238;13.438;2023-03-25T01:13:53;4.63;;;2.13;;
11473;SDS011;5793;52.238;13.438;2023-03-25T01:16:22;3.37;;;1.83;;
11473;SDS011;5793;52.238;13.438;2023-03-25T01:18:51;4.00;;;1.97;;
11473;SDS011;5793;52.238;13.438;2023-03-25T01:21:20;3.70;;;2.23;;
11473;SDS011;5793;52.238;13.438;2023-03-25T01:23:48;3.23;;;2.07;;
11473;SDS011;5793;52.238;13.438;2023-03-25T01:26:16;5.17;;;2.60;;
11473;SDS011;5793;52.238;13.438;2023-03-25T01:28:44;3.43;;;2.40;;
11473;SDS011;5793;52.238;13.438;2023-03-25T01:31:14;4.00;;;2.40;;
11473;SDS011;5793;52.238;13.438;2023-03-25T01:33:42;5.50;;;2.70;;
11473;SDS011;5793;52.238;13.438;2023-03-25T01:36:11;4.37;;;2.87;;
11473;SDS011;5793;52.238;13.438;2023-03-25T01:38:40;5.03;;;2.60;;
11473;SDS011;5793;52.238;13.438;2023-03-25T01:41:08;4.10;;;2.97;;
11473;SDS011;5793;52.238;13.438;2023-03-25T01:43:36;5.50;;;3.00;;
11473;SDS011;5793;52.238;13.438;2023-03-25T01:46:04;4.07;;;3.03;;
11473;SDS011;5793;52.238;13.438;2023-03-25T01:48:33;6.43;;;3.17;;
11473;SDS011;5793;52.238;13.438;2023-03-25T01:51:04;4.40;;;3.30;;
11473;SDS011;5793;52.238;13.438;2023-03-25T01:53:37;3.50;;;2.93;;
11473;SDS011;5793;52.238;13.438;2023-03-25T01:56:06;5.43;;;3.30;;
11473;SDS011;5793;52.238;13.438;2023-03-25T01:58:38;5.87;;;3.17;;
11473;SDS011;5793;52.238;13.438;2023-03-25T02:01:07;4.33;;;3.20;;
11473;SDS011;5793;52.238;13.438;2023-03-25T02:03:39;6.63;;;3.07;;
11473;SDS011;5793;52.238;13.438;2023-03-25T02:06:13;5.77;;;3.10;;
11473;SDS011;5793;52.238;13.438;2023-03-25T02:08:47;5.43;;;3.20;;
11473;SDS011;5793;52.238;13.438;2023-03-25T02:11:16;3.93;;;2.97;;
11473;SDS011;5793;52.238;13.438;2023-03-25T02:13:43;5.07;;;3.10;;
11473;SDS011;5793;52.238;13.438;2023-03-25T02:16:19;5.43;;;3.20;;
11473;SDS011;5793;52.238;13.438;2023-03-25T02:18:54;6.87;;;3.00;;
11473;SDS011;5793;52.238;13.438;2023-03-25T02:21:44;9.30;;;3.37;;
11473;SDS011;5793;52.238;13.438;2023-03-25T02:24:42;3.37;;;2.90;;
11473;SDS011;5793;52.238;13.438;2023-03-25T02:27:29;5.27;;;3.10;;
11473;SDS011;5793;52.238;13.438;2023-03-25T02:30:15;5.30;;;3.07;;
11473;SDS011;5793;52.238;13.438;2023-03-25T02:33:20;3.10;;;2.77;;
11473;SDS011;5793;52.238;13.438;2023-03-25T02:36:17;5.67;;;3.17;;
11473;SDS011;5793;52.238;13.438;2023-03-25T02:39:10;6.30;;;3.23;;
11473;SDS011;5793;52.238;13.438;2023-03-25T02:41:46;3.80;;;3.07;;
11473;SDS011;5793;52.238;13.438;2023-03-25T02:44:21;3.53;;;2.90;;
11473;SDS011;5793;52.238;13.438;2023-03-25T02:46:56;5.77;;;3.00;;
11473;SDS011;5793;52.238;13.438;2023-03-25T02:49:28;5.77;;;3.10;;
11473;SDS011;5793;52.238;13.438;2023-03-25T02:52:00;5.10;;;3.10;;
11473;SDS011;5793;52.238;13.438;2023-03-25T02:54:34;6.10;;;3.30;;
11473;SDS011;5793;52.238;13.438;2023-03-25T02:57:07;4.73;;;3.40;;
11473;SDS011;5793;52.238;13.438;2023-03-25T02:59:39;5.23;;;3.17;;
11473;SDS011;5793;52.238;13.438;2023-03-25T03:02:08;7.80;;;3.40;;
11473;SDS011;5793;52.238;13.438;2023-03-25T03:04:44;4.83;;;3.00;;
11473;SDS011;5793;52.238;13.438;2023-03-25T03:07:14;5.33;;;3.43;;
11473;SDS011;5793;52.238;13.438;2023-03-25T03:09:49;5.67;;;2.90;;
11473;SDS011;5793;52.238;13.438;2023-03-25T03:12:31;4.47;;;3.33;;
11473;SDS011;5793;52.238;13.438;2023-03-25T03:15:18;6.20;;;3.10;;
11473;SDS011;5793;52.238;13.438;2023-03-25T03:17:57;6.40;;;3.47;;
11473;SDS011;5793;52.238;13.438;2023-03-25T03:20:36;8.53;;;3.30;;
11473;SDS011;5793;52.238;13.438;2023-03-25T03:23:08;7.53;;;3.17;;
11473;SDS011;5793;52.238;13.438;2023-03-25T03:25:44;5.53;;;3.17;;
11473;SDS011;5793;52.238;13.438;2023-03-25T03:28:17;4.17;;;2.87;;
11473;SDS011;5793;52.238;13.438;2023-03-25T03:30:53;4.40;;;3.00;;
11473;SDS011;5793;52.238;13.438;2023-03-25T03:33:27;5.90;;;2.37;;
11473;SDS011;5793;52.238;13.438;2023-03-25T03:35:59;5.30;;;2.77;;
11473;SDS011;5793;52.238;13.438;2023-03-25T03:38:31;4.07;;;2.67;;
11473;SDS011;5793;52.238;13.438;2023-03-25T03:41:05;4.70;;;2.47;;
11473;SDS011;5793;52.238;13.438;2023-03-25T03:43:36;5.27;;;2.67;;
11473;SDS011;5793;52.238;13.438;2023-03-25T03:46:09;5.40;;;2.40;;
11473;SDS011;5793;52.238;13.438;2023-03-25T03:48:43;5.50;;;2.37;;
11473;SDS011;5793;52.238;13.438;2023-03-25T03:51:15;4.17;;;2.40;;
11473;SDS011;5793;52.238;13.438;2023-03-25T03:53:46;7.00;;;2.30;;
11473;SDS011;5793;52.238;13.438;2023-03-25T03:56:20;5.20;;;2.77;;
11473;SDS011;5793;52.238;13.438;2023-03-25T03:58:52;4.00;;;2.37;;
11473;SDS011;5793;52.238;13.438;2023-03-25T04:01:25;4.23;;;2.83;;
11473;SDS011;5793;52.238;13.438;2023-03-25T04:04:00;3.90;;;2.63;;
11473;SDS011;5793;52.238;13.438;2023-03-25T04:06:31;5.83;;;2.70;;
11473;SDS011;5793;52.238;13.438;2023-03-25T04:09:05;4.53;;;2.57;;
11473;SDS011;5793;52.238;13.438;2023-03-25T04:11:45;3.40;;;2.40;;
11473;SDS011;5793;52.238;13.438;2023-03-25T04:14:19;5.33;;;2.93;;
11473;SDS011;5793;52.238;13.438;2023-03-25T04:16:48;4.47;;;2.60;;
11473;SDS011;5793;52.238;13.438;2023-03-25T04:19:18;5.00;;;2.70;;
11473;SDS011;5793;52.238;13.438;2023-03-25T04:21:46;4.83;;;2.57;;
11473;SDS011;5793;52.238;13.438;2023-03-25T04:24:15;5.90;;;2.50;;
11473;SDS011;5793;52.238;13.438;2023-03-25T04:26:46;4.53;;;2.87;;
11473;SDS011;5793;52.238;13.438;2023-03-25T04:29:15;7.67;;;3.17;;
11473;SDS011;5793;52.238;13.438;2023-03-25T04:31:42;7.13;;;3.20;;
11473;SDS011;5793;52.238;13.438;2023-03-25T04:34:15;4.43;;;2.90;;
11473;SDS011;5793;52.238;13.438;2023-03-25T04:36:45;5.70;;;2.93;;
11473;SDS011;5793;52.238;13.438;2023-03-25T04:39:15;3.60;;;2.80;;
11473;SDS011;5793;52.238;13.438;2023-03-25T04:41:49;5.83;;;3.03;;
11473;SDS011;5793;52.238;13.438;2023-03-25T04:44:18;4.23;;;2.70;;
11473;SDS011;5793;52.238;13.438;2023-03-25T04:46:47;3.90;;;2.60;;
11473;SDS011;5793;52.238;13.438;2023-03-25T04:49:16;4.20;;;2.20;;
11473;SDS011;5793;52.238;13.438;2023-03-25T04:51:46;6.30;;;2.50;;
11473;SDS011;5793;52.238;13.438;2023-03-25T04:54:16;4.20;;;2.50;;
11473;SDS011;5793;52.238;13.438;2023-03-25T04:56:44;3.37;;;2.20;;
11473;SDS011;5793;52.238;13.438;2023-03-25T04:59:16;6.23;;;2.50;;
11473;SDS011;5793;52.238;13.438;2023-03-25T05:01:44;3.47;;;2.17;;
11473;SDS011;5793;52.238;13.438;2023-03-25T05:04:14;4.27;;;1.97;;
11473;SDS011;5793;52.238;13.438;2023-03-25T05:06:44;3.93;;;1.93;;
11473;SDS011;5793;52.238;13.438;2023-03-25T05:09:14;3.97;;;1.70;;
11473;SDS011;5793;52.238;13.438;2023-03-25T05:11:45;4.50;;;1.60;;
11473;SDS011;5793;52.238;13.438;2023-03-25T05:14:14;3.30;;;1.80;;
11473;SDS011;5793;52.238;13.438;2023-03-25T05:16:45;4.03;;;1.80;;
11473;SDS011;5793;52.238;13.438;2023-03-25T05:19:14;2.63;;;1.57;;
11473;SDS011;5793;52.238;13.438;2023-03-25T05:21:44;1.90;;;1.20;;
11473;SDS011;5793;52.238;13.438;2023-03-25T05:24:12;1.67;;;1.13;;
11473;SDS011;5793;52.238;13.438;2023-03-25T05:26:41;3.27;;;1.40;;
11473;SDS011;5793;52.238;13.438;2023-03-25T05:29:09;2.80;;;1.10;;
11473;SDS011;5793;52.238;13.438;2023-03-25T05:31:41;1.37;;;1.17;;
11473;SDS011;5793;52.238;13.438;2023-03-25T05:34:10;2.00;;;0.97;;
11473;SDS011;5793;52.238;13.438;2023-03-25T05:36:40;2.67;;;1.00;;
11473;SDS011;5793;52.238;13.438;2023-03-25T05:39:07;1.97;;;1.10;;
11473;SDS011;5793;52.238;13.438;2023-03-25T05:41:36;1.67;;;0.90;;
11473;SDS011;5793;52.238;13.438;2023-03-25T05:44:05;1.50;;;0.80;;
11473;SDS011;5793;52.238;13.438;2023-03-25T05:46:33;3.77;;;1.07;;
11473;SDS011;5793;52.238;13.438;2023-03-25T05:49:02;2.87;;;1.03;;
11473;SDS011;5793;52.238;13.438;2023-03-25T05:51:31;3.83;;;1.07;;
11473;SDS011;5793;52.238;13.438;2023-03-25T05:54:03;2.03;;;0.90;;
11473;SDS011;5793;52.238;13.438;2023-03-25T05:56:36;2.27;;;1.17;;
11473;SDS011;5793;52.238;13.438;2023-03-25T05:59:05;3.87;;;1.03;;
11473;SDS011;5793;52.238;13.438;2023-03-25T06:01:33;2.33;;;1.10;;
11473;SDS011;5793;52.238;13.438;2023-03-25T06:04:04;2.17;;;0.90;;
11473;SDS011;5793;52.238;13.438;2023-03-25T06:06:35;3.17;;;1.30;;
11473;SDS011;5793;52.238;13.438;2023-03-25T06:09:03;3.47;;;0.90;;
11473;SDS011;5793;52.238;13.438;2023-03-25T06:11:32;1.73;;;0.90;;
11473;SDS011;5793;52.238;13.438;2023-03-25T06:14:04;3.60;;;0.87;;
11473;SDS011;5793;52.238;13.438;2023-03-25T06:16:32;2.03;;;1.00;;
11473;SDS011;5793;52.238;13.438;2023-03-25T06:19:01;3.83;;;1.00;;
11473;SDS011;5793;52.238;13.438;2023-03-25T06:21:31;2.07;;;1.00;;
11473;SDS011;5793;52.238;13.438;2023-03-25T06:24:00;2.40;;;0.93;;
11473;SDS011;5793;52.238;13.438;2023-03-25T06:26:28;4.43;;;1.30;;
11473;SDS011;5793;52.238;13.438;2023-03-25T06:28:59;2.43;;;1.00;;
11473;SDS011;5793;52.238;13.438;2023-03-25T06:31:27;3.83;;;1.00;;
11473;SDS011;5793;52.238;13.438;2023-03-25T06:33:59;1.67;;;1.00;;
11473;SDS011;5793;52.238;13.438;2023-03-25T06:36:27;1.77;;;0.90;;
11473;SDS011;5793;52.238;13.438;2023-03-25T06:38:57;2.03;;;1.13;;
11473;SDS011;5793;52.238;13.438;2023-03-25T06:41:25;3.30;;;1.10;;
11473;SDS011;5793;52.238;13.438;2023-03-25T06:43:53;1.93;;;1.10;;
11473;SDS011;5793;52.238;13.438;2023-03-25T06:46:21;2.70;;;0.93;;
11473;SDS011;5793;52.238;13.438;2023-03-25T06:48:49;2.87;;;1.10;;
11473;SDS011;5793;52.238;13.438;2023-03-25T06:51:17;2.87;;;1.20;;
11473;SDS011;5793;52.238;13.438;2023-03-25T06:53:47;3.07;;;1.23;;
11473;SDS011;5793;52.238;13.438;2023-03-25T06:56:16;2.87;;;1.10;;
11473;SDS011;5793;52.238;13.438;2023-03-25T06:58:44;1.80;;;1.20;;
11473;SDS011;5793;52.238;13.438;2023-03-25T07:01:12;3.43;;;1.30;;
11473;SDS011;5793;52.238;13.438;2023-03-25T07:03:40;3.43;;;1.10;;
11473;SDS011;5793;52.238;13.438;2023-03-25T07:06:08;4.23;;;1.40;;
11473;SDS011;5793;52.238;13.438;2023-03-25T07:08:43;4.83;;;1.20;;
11473;SDS011;5793;52.238;13.438;2023-03-25T07:11:11;2.43;;;1.17;;
11473;SDS011;5793;52.238;13.438;2023-03-25T07:13:41;4.07;;;1.23;;
11473;SDS011;5793;52.238;13.438;2023-03-25T07:16:09;1.70;;;1.17;;
11473;SDS011;5793;52.238;13.438;2023-03-25T07:18:39;2.93;;;1.10;;
11473;SDS011;5793;52.238;13.438;2023-03-25T07:21:07;3.07;;;1.33;;
11473;SDS011;5793;52.238;13.438;2023-03-25T07:23:35;2.57;;;1.10;;
11473;SDS011;5793;52.238;13.438;2023-03-25T07:26:03;1.60;;;0.97;;
11473;SDS011;5793;52.238;13.438;2023-03-25T07:28:31;2.63;;;1.10;;
11473;SDS011;5793;52.238;13.438;2023-03-25T07:31:00;3.10;;;1.00;;
11473;SDS011;5793;52.238;13.438;2023-03-25T07:33:28;2.07;;;1.00;;
11473;SDS011;5793;52.238;13.438;2023-03-25T07:35:56;5.77;;;1.30;;
11473;SDS011;5793;52.238;13.438;2023-03-25T07:38:23;2.77;;;1.20;;
11473;SDS011;5793;52.238;13.438;2023-03-25T07:40:51;3.97;;;1.27;;
11473;SDS011;5793;52.238;13.438;2023-03-25T07:43:19;2.30;;;1.03;;
11473;SDS011;5793;52.238;13.438;2023-03-25T07:45:47;7.50;;;2.73;;
11473;SDS011;5793;52.238;13.438;2023-03-25T07:48:16;3.20;;;1.40;;
11473;SDS011;5793;52.238;13.438;2023-03-25T07:50:44;3.07;;;1.17;;
11473;SDS011;5793;52.238;13.438;2023-03-25T07:53:14;3.07;;;0.90;;
11473;SDS011;5793;52.238;13.438;2023-03-25T07:55:42;3.27;;;1.20;;
11473;SDS011;5793;52.238;13.438;2023-03-25T07:58:11;1.60;;;1.00;;
11473;SDS011;5793;52.238;13.438;2023-03-25T08:00:39;1.90;;;1.00;;
11473;SDS011;5793;52.238;13.438;2023-03-25T08:03:08;2.10;;;0.93;;
11473;SDS011;5793;52.238;13.438;2023-03-25T08:05:38;1.90;;;1.10;;
11473;SDS011;5793;52.238;13.438;2023-03-25T08:08:11;4.17;;;1.20;;
11473;SDS011;5793;52.238;13.438;2023-03-25T08:10:40;2.47;;;1.00;;
11473;SDS011;5793;52.238;13.438;2023-03-25T08:13:09;2.03;;;0.90;;
11473;SDS011;5793;52.238;13.438;2023-03-25T08:15:37;2.87;;;1.10;;
11473;SDS011;5793;52.238;13.438;2023-03-25T08:18:06;2.10;;;0.90;;
11473;SDS011;5793;52.238;13.438;2023-03-25T08:20:34;1.53;;;0.90;;
11473;SDS011;5793;52.238;13.438;2023-03-25T08:23:03;2.47;;;0.83;;
11473;SDS011;5793;52.238;13.438;2023-03-25T08:25:35;3.03;;;1.00;;
11473;SDS011;5793;52.238;13.438;2023-03-25T08:28:04;2.07;;;0.97;;
11473;SDS011;5793;52.238;13.438;2023-03-25T08:30:32;1.87;;;1.00;;
11473;SDS011;5793;52.238;13.438;2023-03-25T08:33:04;3.50;;;1.00;;
11473;SDS011;5793;52.238;13.438;2023-03-25T08:35:33;1.33;;;0.90;;
11473;SDS011;5793;52.238;13.438;2023-03-25T08:38:02;3.03;;;1.13;;
11473;SDS011;5793;52.238;13.438;2023-03-25T08:40:32;3.73;;;1.10;;
11473;SDS011;5793;52.238;13.438;2023-03-25T08:43:02;3.17;;;1.03;;
11473;SDS011;5793;52.238;13.438;2023-03-25T08:45:30;1.67;;;0.90;;
11473;SDS011;5793;52.238;13.438;2023-03-25T08:48:00;1.67;;;0.80;;
11473;SDS011;5793;52.238;13.438;2023-03-25T08:50:28;4.60;;;1.17;;
11473;SDS011;5793;52.238;13.438;2023-03-25T08:52:56;3.07;;;0.90;;
11473;SDS011;5793;52.238;13.438;2023-03-25T08:55:25;1.47;;;0.80;;
11473;SDS011;5793;52.238;13.438;2023-03-25T08:57:53;2.03;;;1.07;;
11473;SDS011;5793;52.238;13.438;2023-03-25T09:00:21;4.23;;;1.20;;
11473;SDS011;5793;52.238;13.438;2023-03-25T09:02:50;2.80;;;1.10;;
11473;SDS011;5793;52.238;13.438;2023-03-25T09:05:18;3.57;;;0.90;;
11473;SDS011;5793;52.238;13.438;2023-03-25T09:07:46;3.10;;;1.00;;
11473;SDS011;5793;52.238;13.438;2023-03-25T09:10:13;2.72;;;1.20;;
11473;SDS011;5793;52.238;13.438;2023-03-25T09:12:42;3.20;;;1.08;;
11473;SDS011;5793;52.238;13.438;2023-03-25T09:15:10;1.30;;;0.80;;
11473;SDS011;5793;52.238;13.438;2023-03-25T09:17:39;2.53;;;1.10;;
11473;SDS011;5793;52.238;13.438;2023-03-25T09:20:08;3.28;;;1.00;;
11473;SDS011;5793;52.238;13.438;2023-03-25T09:22:37;1.55;;;0.70;;
11473;SDS011;5793;52.238;13.438;2023-03-25T09:25:06;2.67;;;1.23;;
11473;SDS011;5793;52.238;13.438;2023-03-25T09:27:34;6.90;;;1.65;;
11473;SDS011;5793;52.238;13.438;2023-03-25T09:30:05;3.92;;;1.00;;
11473;SDS011;5793;52.238;13.438;2023-03-25T09:32:34;2.35;;;1.20;;
11473;SDS011;5793;52.238;13.438;2023-03-25T09:35:02;2.63;;;1.10;;
11473;SDS011;5793;52.238;13.438;2023-03-25T09:37:30;3.60;;;0.95;;
11473;SDS011;5793;52.238;13.438;2023-03-25T09:39:58;1.55;;;1.10;;
11473;SDS011;5793;52.238;13.438;2023-03-25T09:42:32;2.30;;;0.93;;
11473;SDS011;5793;52.238;13.438;2023-03-25T09:45:16;1.10;;;0.80;;
11473;SDS011;5793;52.238;13.438;2023-03-25T09:47:52;2.47;;;0.90;;
11473;SDS011;5793;52.238;13.438;2023-03-25T09:50:24;1.90;;;0.80;;
11473;SDS011;5793;52.238;13.438;2023-03-25T09:52:55;1.77;;;0.90;;
11473;SDS011;5793;52.238;13.438;2023-03-25T09:55:27;1.60;;;0.83;;
11473;SDS011;5793;52.238;13.438;2023-03-25T09:57:57;1.43;;;0.83;;
11473;SDS011;5793;52.238;13.438;2023-03-25T10:00:30;2.13;;;1.13;;
11473;SDS011;5793;52.238;13.438;2023-03-25T10:03:01;1.70;;;1.00;;
11473;SDS011;5793;52.238;13.438;2023-03-25T10:05:55;3.40;;;0.90;;
11473;SDS011;5793;52.238;13.438;2023-03-25T10:08:35;1.77;;;0.90;;
11473;SDS011;5793;52.238;13.438;2023-03-25T10:11:11;0.97;;;0.80;;
11473;SDS011;5793;52.238;13.438;2023-03-25T10:13:46;1.00;;;0.70;;
11473;SDS011;5793;52.238;13.438;2023-03-25T10:16:23;0.93;;;0.70;;
11473;SDS011;5793;52.238;13.438;2023-03-25T10:19:01;2.30;;;0.90;;
11473;SDS011;5793;52.238;13.438;2023-03-25T10:21:42;2.70;;;1.00;;
11473;SDS011;5793;52.238;13.438;2023-03-25T10:24:17;2.60;;;0.87;;
11473;SDS011;5793;52.238;13.438;2023-03-25T10:26:49;1.92;;;1.00;;
11473;SDS011;5793;52.238;13.438;2023-03-25T10:29:27;1.13;;;0.90;;
11473;SDS011;5793;52.238;13.438;2023-03-25T10:32:02;2.70;;;0.90;;
11473;SDS011;5793;52.238;13.438;2023-03-25T10:34:34;2.67;;;0.98;;
11473;SDS011;5793;52.238;13.438;2023-03-25T10:37:06;4.32;;;1.38;;
11473;SDS011;5793;52.238;13.438;2023-03-25T10:39:40;1.70;;;0.90;;
11473;SDS011;5793;52.238;13.438;2023-03-25T10:42:13;2.10;;;0.80;;
11473;SDS011;5793;52.238;13.438;2023-03-25T10:44:46;1.17;;;0.93;;
11473;SDS011;5793;52.238;13.438;2023-03-25T10:47:16;1.92;;;0.77;;
11473;SDS011;5793;52.238;13.438;2023-03-25T10:49:46;1.30;;;0.88;;
11473;SDS011;5793;52.238;13.438;2023-03-25T10:52:16;1.63;;;0.80;;
11473;SDS011;5793;52.238;13.438;2023-03-25T10:54:45;1.50;;;0.97;;
11473;SDS011;5793;52.238;13.438;2023-03-25T10:57:19;2.37;;;1.00;;
11473;SDS011;5793;52.238;13.438;2023-03-25T10:59:53;5.47;;;1.00;;
11473;SDS011;5793;52.238;13.438;2023-03-25T11:02:28;1.07;;;0.97;;
11473;SDS011;5793;52.238;13.438;2023-03-25T11:04:57;1.50;;;0.90;;
11473;SDS011;5793;52.238;13.438;2023-03-25T11:07:28;2.40;;;0.93;;
11473;SDS011;5793;52.238;13.438;2023-03-25T11:10:10;8.67;;;1.80;;
11473;SDS011;5793;52.238;13.438;2023-03-25T11:12:43;1.30;;;0.90;;
11473;SDS011;5793;52.238;13.438;2023-03-25T11:15:13;3.03;;;1.10;;
11473;SDS011;5793;52.238;13.438;2023-03-25T11:17:44;3.30;;;1.17;;
11473;SDS011;5793;52.238;13.438;2023-03-25T11:20:17;2.63;;;1.30;;
11473;SDS011;5793;52.238;13.438;2023-03-25T11:22:49;1.33;;;0.77;;
11473;SDS011;5793;52.238;13.438;2023-03-25T11:25:22;1.40;;;0.80;;
11473;SDS011;5793;52.238;13.438;2023-03-25T11:27:52;1.17;;;0.90;;
11473;SDS011;5793;52.238;13.438;2023-03-25T11:30:24;0.73;;;0.70;;
11473;SDS011;5793;52.238;13.438;2023-03-25T11:32:57;1.77;;;1.02;;
11473;SDS011;5793;52.238;13.438;2023-03-25T11:35:29;2.20;;;1.15;;
11473;SDS011;5793;52.238;13.438;2023-03-25T11:38:00;2.90;;;1.07;;
11473;SDS011;5793;52.238;13.438;2023-03-25T11:40:34;2.13;;;0.90;;
11473;SDS011;5793;52.238;13.438;2023-03-25T11:43:02;1.40;;;0.82;;
11473;SDS011;5793;52.238;13.438;2023-03-25T11:45:30;2.15;;;1.00;;
11473;SDS011;5793;52.238;13.438;2023-03-25T11:48:07;1.77;;;1.02;;
11473;SDS011;5793;52.238;13.438;2023-03-25T11:50:37;3.17;;;0.95;;
11473;SDS011;5793;52.238;13.438;2023-03-25T11:53:13;1.95;;;1.00;;
11473;SDS011;5793;52.238;13.438;2023-03-25T11:55:43;1.77;;;0.90;;
11473;SDS011;5793;52.238;13.438;2023-03-25T11:58:14;2.25;;;1.05;;
11473;SDS011;5793;52.238;13.438;2023-03-25T12:00:45;1.38;;;1.05;;
11473;SDS011;5793;52.238;13.438;2023-03-25T12:03:18;1.23;;;0.73;;
11473;SDS011;5793;52.238;13.438;2023-03-25T12:05:58;1.35;;;0.82;;
11473;SDS011;5793;52.238;13.438;2023-03-25T12:08:28;1.40;;;0.70;;
11473;SDS011;5793;52.238;13.438;2023-03-25T12:10:59;1.27;;;0.95;;
11473;SDS011;5793;52.238;13.438;2023-03-25T12:13:32;1.45;;;0.82;;
11473;SDS011;5793;52.238;13.438;2023-03-25T12:16:13;1.48;;;0.88;;
11473;SDS011;5793;52.238;13.438;2023-03-25T12:18:56;0.80;;;0.77;;
11473;SDS011;5793;52.238;13.438;2023-03-25T12:21:40;0.88;;;0.77;;
11473;SDS011;5793;52.238;13.438;2023-03-25T12:24:20;2.30;;;0.93;;
11473;SDS011;5793;52.238;13.438;2023-03-25T12:26:57;0.93;;;0.70;;
11473;SDS011;5793;52.238;13.438;2023-03-25T12:29:39;2.45;;;0.90;;
11473;SDS011;5793;52.238;13.438;2023-03-25T12:32:15;0.90;;;0.63;;
11473;SDS011;5793;52.238;13.438;2023-03-25T12:34:55;4.85;;;1.83;;
11473;SDS011;5793;52.238;13.438;2023-03-25T12:37:30;1.25;;;0.80;;
11473;SDS011;5793;52.238;13.438;2023-03-25T12:40:16;0.88;;;0.70;;
11473;SDS011;5793;52.238;13.438;2023-03-25T12:42:56;1.15;;;0.80;;
11473;SDS011;5793;52.238;13.438;2023-03-25T12:45:35;0.65;;;0.63;;
11473;SDS011;5793;52.238;13.438;2023-03-25T12:48:18;2.35;;;0.88;;
11473;SDS011;5793;52.238;13.438;2023-03-25T12:51:01;4.88;;;0.90;;
11473;SDS011;5793;52.238;13.438;2023-03-25T12:53:38;1.75;;;0.80;;
11473;SDS011;5793;52.238;13.438;2023-03-25T12:56:15;0.90;;;0.70;;
11473;SDS011;5793;52.238;13.438;2023-03-25T12:58:58;1.38;;;0.90;;
11473;SDS011;5793;52.238;13.438;2023-03-25T13:01:39;1.95;;;0.95;;
11473;SDS011;5793;52.238;13.438;2023-03-25T13:04:22;1.00;;;0.90;;
11473;SDS011;5793;52.238;13.438;2023-03-25T13:07:01;1.57;;;0.97;;
11473;SDS011;5793;52.238;13.438;2023-03-25T13:09:32;2.17;;;1.20;;
11473;SDS011;5793;52.238;13.438;2023-03-25T13:12:06;2.30;;;1.00;;
11473;SDS011;5793;52.238;13.438;2023-03-25T13:14:38;2.27;;;1.10;;
11473;SDS011;5793;52.238;13.438;2023-03-25T13:17:11;2.63;;;1.00;;
11473;SDS011;5793;52.238;13.438;2023-03-25T13:19:47;1.17;;;0.90;;
11473;SDS011;5793;52.238;13.438;2023-03-25T13:22:17;1.17;;;0.80;;
11473;SDS011;5793;52.238;13.438;2023-03-25T13:24:50;2.20;;;0.80;;
11473;SDS011;5793;52.238;13.438;2023-03-25T13:27:21;1.27;;;0.97;;
11473;SDS011;5793;52.238;13.438;2023-03-25T13:29:50;1.53;;;0.80;;
11473;SDS011;5793;52.238;13.438;2023-03-25T13:32:21;2.20;;;1.03;;
11473;SDS011;5793;52.238;13.438;2023-03-25T13:34:53;2.10;;;1.00;;
11473;SDS011;5793;52.238;13.438;2023-03-25T13:37:28;1.70;;;0.88;;
11473;SDS011;5793;52.238;13.438;2023-03-25T13:40:05;2.00;;;0.70;;
11473;SDS011;5793;52.238;13.438;2023-03-25T13:42:45;1.33;;;0.70;;
11473;SDS011;5793;52.238;13.438;2023-03-25T13:45:18;1.43;;;0.77;;
11473;SDS011;5793;52.238;13.438;2023-03-25T13:47:49;4.27;;;1.00;;
11473;SDS011;5793;52.238;13.438;2023-03-25T13:50:24;4.35;;;1.00;;
11473;SDS011;5793;52.238;13.438;2023-03-25T13:52:57;1.42;;;0.80;;
11473;SDS011;5793;52.238;13.438;2023-03-25T13:55:30;1.93;;;1.07;;
11473;SDS011;5793;52.238;13.438;2023-03-25T13:58:11;2.07;;;0.90;;
11473;SDS011;5793;52.238;13.438;2023-03-25T14:00:55;2.63;;;0.87;;
11473;SDS011;5793;52.238;13.438;2023-03-25T14:03:44;2.27;;;1.00;;
11473;SDS011;5793;52.238;13.438;2023-03-25T14:06:33;2.67;;;1.07;;
11473;SDS011;5793;52.238;13.438;2023-03-25T14:12:08;1.93;;;0.90;;
11473;SDS011;5793;52.238;13.438;2023-03-25T14:14:40;3.50;;;1.00;;
11473;SDS011;5793;52.238;13.438;2023-03-25T14:17:11;3.87;;;1.10;;
11473;SDS011;5793;52.238;13.438;2023-03-25T14:19:42;4.77;;;2.93;;
11473;SDS011;5793;52.238;13.438;2023-03-25T14:22:15;2.63;;;1.73;;
11473;SDS011;5793;52.238;13.438;2023-03-25T14:24:48;1.03;;;0.93;;
11473;SDS011;5793;52.238;13.438;2023-03-25T14:27:17;1.93;;;0.73;;
11473;SDS011;5793;52.238;13.438;2023-03-25T14:29:51;2.37;;;0.80;;
11473;SDS011;5793;52.238;13.438;2023-03-25T14:32:28;3.93;;;0.90;;
11473;SDS011;5793;52.238;13.438;2023-03-25T14:41:15;2.77;;;0.90;;
11473;SDS011;5793;52.238;13.438;2023-03-25T14:43:43;2.97;;;1.10;;
11473;SDS011;5793;52.238;13.438;2023-03-25T14:46:19;1.63;;;1.10;;
11473;SDS011;5793;52.238;13.438;2023-03-25T14:48:49;0.63;;;0.60;;
11473;SDS011;5793;52.238;13.438;2023-03-25T14:51:21;2.37;;;0.73;;
11473;SDS011;5793;52.238;13.438;2023-03-25T14:54:15;2.10;;;0.80;;
11473;SDS011;5793;52.238;13.438;2023-03-25T14:56:50;0.80;;;0.60;;
11473;SDS011;5793;52.238;13.438;2023-03-25T14:59:22;1.73;;;0.80;;
11473;SDS011;5793;52.238;13.438;2023-03-25T15:01:58;0.50;;;0.43;;
11473;SDS011;5793;52.238;13.438;2023-03-25T15:04:29;0.73;;;0.67;;
11473;SDS011;5793;52.238;13.438;2023-03-25T15:07:00;4.00;;;0.70;;
11473;SDS011;5793;52.238;13.438;2023-03-25T15:09:29;0.67;;;0.40;;
11473;SDS011;5793;52.238;13.438;2023-03-25T15:12:00;0.60;;;0.60;;
11473;SDS011;5793;52.238;13.438;2023-03-25T15:14:32;2.63;;;0.90;;
11473;SDS011;5793;52.238;13.438;2023-03-25T15:17:03;2.37;;;0.80;;
11473;SDS011;5793;52.238;13.438;2023-03-25T15:22:35;1.90;;;0.90;;
11473;SDS011;5793;52.238;13.438;2023-03-25T15:25:06;1.03;;;0.80;;
11473;SDS011;5793;52.238;13.438;2023-03-25T15:30:50;2.07;;;0.83;;
11473;SDS011;5793;52.238;13.438;2023-03-25T15:33:30;3.43;;;1.00;;